KMRF

Marfa Municipal Airport

Marfa, Texas, USA
METAR KMRF 152256Z AUTO 17005KT 10SM 15/M12 A3018 RMK AO2 SLP215 T01501122 $
Observed Flight Rules
Nov-15 @ 22:56 UTC (16 minutes ago)
Wind Visibility
170° at 5 knots 10 miles
Temperatures Readings
Current 15°C / 59°F
Dewpoint -12°C / 10°F
Humidity 14%
Altimeter 30.18" Hg
Pressure 1021.5 hPa
Elevation 1481
METAR KMRF 152256Z AUTO 17005KT 10SM 15/M12 A3018 RMK AO2 SLP215 T01501122 $
Observed Flight Rules
Nov-15 @ 22:56 UTC
(16 minutes ago)
Wind Visibility
170° at 5 knots 10 miles
Temperature Dewpoint
15°C / 59°F -12°C / 10°F
Humidity Altimeter Pressure
14% 30.18" Hg 1021.5 hPa